Terminal Aerodrome Forecast
Issued by NWS

Home | Current Version | Previous Version | Text Only | Print | Product List | Glossary On
Versions: 1 2 3 4 5 6 7 8 9 10 11 12 13 14 15 16
000
FTUS44 KOUN 220520
TAFPNC
TAF
KPNC 220520Z 2206/2306 14005KT P6SM SKC
     FM221200 16004KT 3SM BR SCT004
      TEMPO 2212/2214 BKN008
     FM221500 15008KT P6SM BKN035
     FM222200 14008KT P6SM SCT050=

USA.gov is the U.S. government's official web portal to all federal, state and local government web resources and services.